This is the latest recevied weather packets stored in our database for station/object K0KDS. If no packets are shown the sender has not sent any weather packets the latest 1 day(s).
| Time | Temp. | Humidity | Pressure | Rain* | Wind** | Luminosity | Snow |
|---|---|---|---|---|---|---|---|
| 1778023047 | 13.33° C | 33% | 1008.6 hPa | 0 mm | 2.24 m/s, 342° | - | - |
| 1778022147 | 13.33° C | 34% | 1008.3 hPa | 0 mm | 0 m/s | - | - |
| 1778021247 | 13.89° C | 31% | 1008.4 hPa | 0 mm | 0 m/s | - | - |
| 1778020347 | 14.44° C | 32% | 1008.3 hPa | 0 mm | 0.89 m/s, 338° | - | - |
| 1778019447 | 14.44° C | 32% | 1008.3 hPa | 0 mm | 4.02 m/s, 326° | - | - |
| 1778018547 | 13.89° C | 32% | 1008.4 hPa | 0 mm | 0 m/s | - | - |
| 1778017647 | 13.89° C | 31% | 1008.4 hPa | 0 mm | 4.92 m/s, 300° | - | - |
| 1778016747 | 14.44° C | 32% | 1008.4 hPa | 0 mm | 1.79 m/s, 256° | - | - |
| 1778015847 | 15° C | 30% | 1008.4 hPa | 0 mm | 6.71 m/s, 311° | - | - |
| 1778014947 | 15° C | 30% | 1008.3 hPa | 0 mm | 3.13 m/s, 261° | - | - |
| 1778014047 | 15° C | 31% | 1008.4 hPa | 0 mm | 1.34 m/s, 323° | - | - |
| 1778013147 | 15° C | 32% | 1008.4 hPa | 0 mm | 0.45 m/s, 326° | - | - |
| 1778012247 | 15.56° C | 32% | 1008.7 hPa | 0 mm | 1.34 m/s, 313° | - | - |
| 1778011347 | 15° C | 33% | 1008.5 hPa | 0 mm | 0.45 m/s, 298° | - | - |
| 1778010447 | 15.56° C | 31% | 1008.9 hPa | 0 mm | 0.89 m/s, 271° | - | - |
| 1778009547 | 15.56° C | 34% | 1008.9 hPa | 0 mm | 3.13 m/s, 304° | - | - |
| 1778008647 | 14.44° C | 37% | 1008.9 hPa | 0 mm | 0.89 m/s, 278° | - | - |
| 1778007747 | 14.44° C | 37% | 1009 hPa | 0 mm | 2.68 m/s, 311° | - | - |
| 1778006847 | 14.44° C | 36% | 1009.1 hPa | 0 mm | 1.79 m/s, 263° | - | - |
| 1778005951 | 14.44° C | 39% | 1009.3 hPa | 0 mm | 0 m/s | - | - |
| 1778005047 | 13.89° C | 38% | 1009.6 hPa | 0 mm | 3.58 m/s, 315° | - | - |
| 1778004147 | 13.33° C | 36% | 1009.7 hPa | 0 mm | 0 m/s | - | - |
| 1778003247 | 13.89° C | 41% | 1009.9 hPa | 0 mm | 0 m/s | - | - |
| 1778002347 | 13.33° C | 40% | 1010.1 hPa | 0 mm | 0.45 m/s, 243° | - | - |
| 1778001447 | 13.33° C | 40% | 1010 hPa | 0 mm | 0 m/s | - | - |
* Rain latest hour (hover to see other rain measurements)
** Current wind speed in m/s (hover to see current wind gust speed)